Data for 03/06/2005

Time Sea-Level Adjusted Pressure Absolute Pressure Temperature Relative Humidity Dew Point   
(mb) (inHg) (mb) (inHg) (C) (F) (%) (C) (F)
00:05 1020 30.12 849 25.07 4.2 39.5 48 -5.8 21.6
00:10 1020 30.12 849 25.07 4.2 39.5 48 -5.9 21.4
00:15 1020 30.12 849 25.07 3.8 38.8 50 -5.8 21.6
00:20 1020 30.12 849 25.07 3.5 38.2 52 -5.5 22.1
00:25 1020 30.12 849 25.07 3.2 37.8 53 -5.6 22
00:30 1020 30.12 849 25.07 3.1 37.6 54 -5.4 22.2
00:35 1020 30.12 849 25.07 3.1 37.6 53 -5.6 21.9
00:40 1020 30.12 849 25.07 3.2 37.8 53 -5.4 22.3
00:45 1020 30.12 849 25.07 2.9 37.3 54 -5.5 22
00:50 1020 30.12 849 25.07 2.7 36.9 55 -5.5 22.1
00:55 1019 30.09 849 25.07 2.4 36.2 55 -5.7 21.7
01:00 1019 30.09 849 25.07 2.2 35.9 57 -5.4 22.3
01:05 1019 30.09 848 25.04 1.8 35.3 58 -5.5 22.1
01:10 1019 30.09 848 25.04 2 35.6 56 -5.8 21.6
01:15 1019 30.09 848 25.04 2.4 36.3 55 -5.7 21.7
01:20 1019 30.09 848 25.04 2.6 36.6 54 -5.9 21.4
01:25 1019 30.09 848 25.04 2.9 37.3 52 -6 21.1
01:30 1019 30.09 848 25.04 3.4 38.1 51 -5.8 21.5
01:35 1019 30.09 848 25.04 3.4 38.1 51 -5.9 21.3
01:40 1019 30.09 848 25.04 3.8 38.8 49 -6 21.3
01:45 1019 30.09 848 25.04 3.6 38.5 50 -5.7 21.7
01:50 1019 30.09 848 25.04 3.2 37.8 52 -5.8 21.5
01:55 1019 30.09 848 25.04 2.9 37.2 53 -5.8 21.6
02:00 1019 30.09 848 25.04 2.6 36.7 54 -5.9 21.4
02:05 1019 30.09 848 25.04 2.8 37 52 -6.1 21
02:10 1019 30.09 848 25.04 2.9 37.2 52 -5.9 21.3
02:15 1019 30.09 848 25.04 2.8 37.1 53 -5.9 21.4
02:20 1019 30.09 848 25.04 2.6 36.7 54 -5.7 21.7
02:25 1019 30.09 848 25.04 2.4 36.3 58 -5 22.9
02:30 1019 30.09 849 25.07 1.7 35 61 -5 23
02:35 1019 30.09 849 25.07 1.5 34.7 60 -5.5 22.1
02:40 1019 30.09 848 25.04 1.7 35.1 59 -5.5 22.1
02:45 1019 30.09 848 25.04 1.3 34.4 64 -4.9 23.3
02:50 1019 30.09 848 25.04 1.4 34.5 63 -4.9 23.1
02:55 1019 30.09 848 25.04 1.6 34.8 60 -5.4 22.3
03:00 1019 30.09 848 25.04 2 35.7 58 -5.3 22.5
03:05 1019 30.09 848 25.04 2.4 36.3 54 -5.9 21.4
03:10 1019 30.09 848 25.04 2.4 36.3 58 -5.1 22.9
03:15 1019 30.09 849 25.07 2 35.6 59 -5.3 22.5
03:20 1019 30.09 849 25.07 1.8 35.3 58 -5.6 21.8
03:25 1019 30.09 849 25.07 1.6 34.9 59 -5.5 22.1
03:30 1020 30.12 849 25.07 1.5 34.7 59 -5.6 22
03:35 1019 30.09 849 25.07 1.4 34.5 59 -5.7 21.7
03:40 1019 30.09 849 25.07 1.2 34.2 61 -5.6 22
03:45 1019 30.09 849 25.07 0.9 33.6 63 -5.5 22.2
03:50 1019 30.09 849 25.07 0.8 33.4 63 -5.6 21.9
03:55 1019 30.09 849 25.07 0.8 33.5 62 -5.7 21.7
04:00 1019 30.09 849 25.07 1.1 34 58 -6.2 20.9
04:05 1020 30.12 849 25.07 1.6 35 55 -6.3 20.6
04:10 1020 30.12 849 25.07 1.9 35.4 55 -6.2 20.9
04:15 1019 30.09 849 25.07 1.8 35.3 56 -6 21.3
04:20 1020 30.12 849 25.07 1.8 35.2 56 -6.2 20.9
04:25 1020 30.12 849 25.07 1.8 35.2 60 -5.3 22.5
04:30 1020 30.12 849 25.07 1.1 34.1 57 -6.4 20.6
04:35 1020 30.12 849 25.07 1.1 33.9 58 -6.3 20.7
04:40 1020 30.12 849 25.07 1.7 35 52 -7.1 19.3
04:45 1020 30.12 849 25.07 2 35.6 54 -6.4 20.6
04:50 1019 30.09 849 25.07 1.5 34.7 55 -6.6 20.1
04:55 1019 30.09 849 25.07 1.6 34.9 54 -6.6 20.1
05:00 1019 30.09 849 25.07 1.5 34.8 55 -6.6 20.1
05:05 1019 30.09 849 25.07 1.4 34.6 57 -6.1 21.1
05:10 1019 30.09 848 25.04 1.2 34.2 59 -5.9 21.3
05:15 1019 30.09 849 25.07 1.1 33.9 61 -5.6 21.9
05:20 1019 30.09 848 25.04 1.3 34.4 56 -6.5 20.3
05:25 1019 30.09 848 25.04 2.2 36 52 -6.6 20.2
05:30 1019 30.09 848 25.04 2 35.6 55 -6 21.1
05:35 1019 30.09 848 25.04 1.4 34.6 56 -6.3 20.6
05:40 1019 30.09 848 25.04 0.9 33.6 59 -6.3 20.7
05:45 1019 30.09 848 25.04 0.6 33.1 60 -6.3 20.7
05:50 1019 30.09 848 25.04 0.2 32.4 63 -5.9 21.4
05:55 1019 30.09 848 25.04 0.3 32.5 60 -6.6 20
06:00 1019 30.09 848 25.04 1 33.8 57 -6.7 19.9
06:05 1019 30.09 848 25.04 1.5 34.7 55 -6.6 20.1
06:10 1019 30.09 848 25.04 1.3 34.3 58 -6 21.2
06:15 1019 30.09 848 25.04 0.4 32.8 62 -6 21.1
06:20 1019 30.09 848 25.04 0.4 32.7 61 -6.4 20.6
06:25 1019 30.09 848 25.04 0.7 33.3 58 -6.7 20
06:30 1019 30.09 848 25.04 0.9 33.7 57 -6.5 20.3
06:35 1019 30.09 848 25.04 1.1 33.9 56 -6.8 19.8
06:40 1019 30.09 848 25.04 1.4 34.5 54 -6.9 19.7
06:45 1019 30.09 848 25.04 1.6 35 53 -7 19.5
06:50 1019 30.09 848 25.04 1.8 35.2 53 -6.7 19.9
06:55 1019 30.09 848 25.04 1.8 35.3 54 -6.6 20.2
07:00 1019 30.09 848 25.04 1.7 35.1 54 -6.6 20.2
07:05 1019 30.09 848 25.04 1.9 35.5 51 -7.1 19.1
07:10 1019 30.09 848 25.04 2.4 36.2 51 -6.9 19.6
07:15 1019 30.09 848 25.04 2.4 36.2 52 -6.6 20.2
07:20 1019 30.09 848 25.04 1.8 35.2 58 -5.7 21.8
07:25 1019 30.09 848 25.04 0.9 33.6 60 -6.1 21.1
07:30 1019 30.09 848 25.04 0.8 33.5 57 -6.8 19.8
07:35 1019 30.09 848 25.04 1.4 34.5 58 -6 21.1
07:40 1019 30.09 849 25.07 1.1 34 58 -6.2 20.9
07:45 1019 30.09 849 25.07 1.6 34.8 54 -6.6 20
07:50 1019 30.09 849 25.07 2.2 35.9 54 -6.1 21
07:55 1019 30.09 849 25.07 1.8 35.2 57 -5.9 21.3
08:00 1020 30.12 849 25.07 2.1 35.7 54 -6.3 20.6
08:05 1019 30.09 849 25.07 2.2 36 55 -6 21.2
08:10 1019 30.09 848 25.04 1.8 35.3 57 -5.9 21.4
08:15 1019 30.09 848 25.04 1.9 35.5 57 -5.6 21.9
08:20 1019 30.09 848 25.04 2.5 36.6 54 -5.9 21.4
08:25 1019 30.09 848 25.04 3.5 38.3 48 -6.5 20.3
08:30 1019 30.09 848 25.04 4.4 40 45 -6.5 20.3
08:35 1019 30.09 848 25.04 5 41 45 -6.1 21.1
08:40 1019 30.09 848 25.04 5.5 41.9 42 -6.4 20.4
08:45 1019 30.09 848 25.04 6.3 43.4 40 -6.2 20.9
08:50 1019 30.09 848 25.04 6.4 43.5 41 -5.8 21.6
08:55 1019 30.09 848 25.04 6.7 44.1 39 -6.3 20.6
09:00 1019 30.09 848 25.04 7.4 45.4 39 -5.8 21.6
09:05 1019 30.09 848 25.04 6.7 44 43 -5 23
09:10 1019 30.09 848 25.04 6.7 44.1 39 -6.2 20.9
09:15 1019 30.09 848 25.04 7.6 45.7 39 -5.6 21.9
09:20 1019 30.09 848 25.04 8.2 46.8 37 -5.4 22.2
09:25 1019 30.09 848 25.04 8.4 47.1 38 -5.2 22.7
09:30 1019 30.09 848 25.04 7.5 45.5 39 -5.5 22.1
09:35 1019 30.09 848 25.04 7.2 45 37 -6.4 20.4
09:40 1019 30.09 848 25.04 8.4 47.1 34 -6.6 20.2
09:45 1019 30.09 848 25.04 9 48.2 33 -6.5 20.4
09:50 1019 30.09 848 25.04 9.1 48.5 32 -6.6 20.1
09:55 1019 30.09 848 25.04 9.2 48.6 31 -7.2 19
10:00 1019 30.09 848 25.04 9.5 49 30 -7.1 19.2
10:05 1018 30.06 848 25.04 9.9 49.9 30 -6.9 19.6
10:10 1018 30.06 848 25.04 10.4 50.8 29 -6.9 19.6
10:15 1018 30.06 848 25.04 10.6 51.1 29 -6.9 19.6
10:20 1019 30.09 848 25.04 10.5 51 29 -6.6 20.1
10:25 1018 30.06 848 25.04 10.6 51 29 -6.9 19.6
10:30 1019 30.09 848 25.04 10.8 51.4 28 -7 19.4
10:35 1019 30.09 848 25.04 10.7 51.2 28 -7.2 19
10:40 1019 30.09 848 25.04 10.8 51.4 27 -7.2 19
10:45 1019 30.09 848 25.04 10.9 51.7 26 -7.6 18.2
10:50 1019 30.09 848 25.04 10.9 51.7 26 -8 17.7
10:55 1019 30.09 848 25.04 11.1 52 25 -8.4 16.9
11:00 1018 30.06 848 25.04 11.1 52 25 -8.2 17.3
11:05 1018 30.06 848 25.04 11.5 52.6 22 -9.2 15.4
11:10 1018 30.06 848 25.04 11.8 53.2 23 -8.6 16.5
11:15 1018 30.06 848 25.04 12.1 53.7 23 -8.5 16.7
11:20 1018 30.06 848 25.04 11.8 53.2 23 -8.5 16.7
11:25 1018 30.06 848 25.04 11.8 53.3 22 -9.3 15.3
11:30 1018 30.06 848 25.04 12.1 53.8 22 -8.8 16.1
11:35 1018 30.06 847 25.01 12.1 53.7 21 -9.6 14.8
11:40 1018 30.06 847 25.01 12.3 54.1 21 -9.4 15.1
11:45 1018 30.06 847 25.01 12.7 54.9 18 -10.8 12.6
11:50 1018 30.06 847 25.01 12.5 54.6 18 -11 12.2
11:55 1018 30.06 847 25.01 12.8 55 18 -10.6 12.8
12:00 1018 30.06 847 25.01 12.7 54.8 18 -11.1 12.1
12:05 1018 30.06 847 25.01 12.8 55 18 -10.7 12.7
12:10 1018 30.06 847 25.01 12.9 55.2 17 -11.3 11.7
12:15 1018 30.06 847 25.01 12.9 55.2 18 -11 12.2
12:20 1018 30.06 847 25.01 13 55.5 18 -11.1 12
12:25 1018 30.06 847 25.01 13.2 55.7 18 -10.8 12.5
12:30 1018 30.06 847 25.01 13.3 55.9 17 -11.1 12.1
12:35 1018 30.06 847 25.01 13.1 55.6 18 -10.9 12.5
12:40 1018 30.06 847 25.01 13 55.4 18 -10.6 12.9
12:45 1018 30.06 847 25.01 13.2 55.7 18 -10.8 12.5
12:50 1018 30.06 847 25.01 13.1 55.7 17 -11.3 11.6
12:55 1017 30.03 847 25.01 13.4 56.2 19 -10 14
13:00 1017 30.03 847 25.01 13.4 56.2 18 -10.3 13.5
13:05 1017 30.03 847 25.01 13.5 56.4 18 -10.4 13.2
13:10 1017 30.03 847 25.01 13.1 55.6 18 -10.4 13.3
13:15 1017 30.03 846 24.98 13.2 55.8 18 -10.9 12.5
13:20 1017 30.03 846 24.98 13.2 55.8 18 -10.5 13.1
13:25 1017 30.03 846 24.98 13.9 56.9 17 -10.5 13
13:30 1017 30.03 846 24.98 13.6 56.6 17 -10.7 12.7
13:35 1017 30.03 846 24.98 13.9 57 17 -10.5 13.1
13:40 1017 30.03 846 24.98 14.1 57.3 18 -10 14
13:45 1017 30.03 846 24.98 14.3 57.7 16 -11.4 11.5
13:50 1017 30.03 846 24.98 14.2 57.5 17 -10.5 13
13:55 1017 30.03 846 24.98 13.9 57 16 -11.7 10.9
14:00 1016 30 846 24.98 13.6 56.5 16 -11.8 10.7
14:05 1017 30.03 846 24.98 13.8 56.8 16 -11.6 11.1
14:10 1016 30 846 24.98 13.8 56.8 16 -11.8 10.8
14:15 1016 30 846 24.98 14 57.2 16 -11.7 11
14:20 1016 30 845 24.95 13.9 56.9 15 -12.5 9.5
14:25 1016 30 846 24.98 13.8 56.8 15 -12.1 10.2
14:30 1016 30 846 24.98 14 57.2 15 -12.6 9.4
14:35 1016 30 846 24.98 13.9 57.1 15 -12.6 9.3
14:40 1016 30 846 24.98 13.7 56.6 14 -13.1 8.4
14:45 1016 30 846 24.98 13.7 56.6 13 -13.9 7
14:50 1016 30 846 24.98 13.6 56.4 13 -14.1 6.6
14:55 1016 30 846 24.98 13.6 56.5 13 -14.3 6.3
15:00 1016 30 846 24.98 13.7 56.6 13 -14.2 6.4
15:05 1016 30 846 24.98 13.5 56.4 13 -14.3 6.3
15:10 1016 30 846 24.98 13.6 56.4 13 -14.5 6
15:15 1017 30.03 846 24.98 13.6 56.4 13 -13.9 6.9
15:20 1017 30.03 846 24.98 13.5 56.2 13 -14.8 5.4
15:25 1016 30 846 24.98 13.4 56 14 -14 6.8
15:30 1017 30.03 846 24.98 13.3 55.9 13 -14.5 5.8
15:35 1017 30.03 846 24.98 13.6 56.4 14 -13.6 7.5
15:40 1017 30.03 846 24.98 13.3 55.9 15 -12.9 8.8
15:45 1017 30.03 846 24.98 13.4 56 15 -12.9 8.8
15:50 1017 30.03 846 24.98 13.2 55.8 15 -13.1 8.4
15:55 1017 30.03 846 24.98 13.1 55.5 15 -13.4 8
16:00 1017 30.03 846 24.98 13.1 55.6 15 -13.1 8.4
16:05 1017 30.03 846 24.98 13.1 55.6 15 -13.2 8.2
16:10 1017 30.03 846 24.98 13.1 55.7 15 -12.9 8.8
16:15 1017 30.03 846 24.98 13.4 56.2 15 -12.5 9.5
16:20 1017 30.03 846 24.98 13.4 56.1 15 -12.8 9
16:25 1017 30.03 846 24.98 13.4 56.1 15 -12.6 9.3
16:30 1017 30.03 846 24.98 12.9 55.3 15 -13.3 8.1
16:35 1017 30.03 846 24.98 12.6 54.7 15 -13.3 8.1
16:40 1017 30.03 846 24.98 12.2 54 16 -13.1 8.3
16:45 1017 30.03 846 24.98 11.9 53.4 17 -12.2 10.1
16:50 1017 30.03 846 24.98 11.7 53.1 17 -12.2 10
16:55 1017 30.03 846 24.98 11.6 52.9 17 -12.4 9.7
17:00 1017 30.03 846 24.98 11.3 52.3 18 -12.2 10
17:05 1017 30.03 846 24.98 11.1 51.9 19 -12 10.4
17:10 1017 30.03 846 24.98 10.9 51.7 20 -11.5 11.3
17:15 1017 30.03 846 24.98 10.9 51.6 20 -11 12.2
17:20 1017 30.03 846 24.98 10.8 51.4 21 -10.6 12.8
17:25 1017 30.03 847 25.01 10.6 51.1 22 -10 13.9
17:30 1018 30.06 847 25.01 10.4 50.6 23 -10 14.1
17:35 1018 30.06 847 25.01 10.4 50.7 23 -9.8 14.4
17:40 1018 30.06 847 25.01 10.2 50.3 24 -9.7 14.6
17:45 1018 30.06 847 25.01 10.1 50.3 24 -9.6 14.7
17:50 1018 30.06 847 25.01 10.3 50.5 24 -9.3 15.3
17:55 1018 30.06 847 25.01 10.1 50.3 25 -9.1 15.5
18:00 1018 30.06 847 25.01 9.9 49.7 25 -9.1 15.7
18:05 1018 30.06 847 25.01 9.7 49.4 26 -9 15.7
18:10 1018 30.06 847 25.01 9.5 49.1 27 -8.7 16.3
18:15 1018 30.06 847 25.01 9.2 48.6 27 -8.7 16.4
18:20 1018 30.06 847 25.01 9 48.1 28 -8.6 16.5
18:25 1018 30.06 847 25.01 8.8 47.8 28 -8.8 16.2
18:30 1018 30.06 847 25.01 8.6 47.5 28 -8.9 16
18:35 1018 30.06 847 25.01 8.4 47.2 28 -9 15.7
18:40 1018 30.06 847 25.01 8.3 46.9 28 -9.2 15.4
18:45 1018 30.06 847 25.01 8.2 46.8 28 -9.4 15
18:50 1018 30.06 847 25.01 8.2 46.8 27 -9.6 14.6
18:55 1018 30.06 848 25.04 8.1 46.6 27 -9.8 14.3
19:00 1018 30.06 848 25.04 8.1 46.5 27 -10 13.9
19:05 1018 30.06 848 25.04 8 46.4 27 -10 14
19:10 1019 30.09 848 25.04 7.9 46.2 27 -9.9 14.2
19:15 1019 30.09 848 25.04 7.7 45.8 27 -10 14.1
19:20 1019 30.09 848 25.04 7.7 45.8 27 -10.1 13.8
19:25 1019 30.09 848 25.04 7.6 45.7 27 -10.1 13.8
19:30 1019 30.09 848 25.04 7.5 45.4 28 -10.1 13.8
19:35 1019 30.09 848 25.04 7.4 45.4 28 -10 14.1
19:40 1019 30.09 848 25.04 7.3 45.1 28 -10.1 13.8
19:45 1019 30.09 848 25.04 7.2 45 28 -10 13.9
19:50 1019 30.09 848 25.04 7 44.6 29 -9.9 14.2
19:55 1019 30.09 848 25.04 6.8 44.3 29 -10 14
20:00 1019 30.09 848 25.04 6.6 43.9 30 -9.9 14.2
20:05 1019 30.09 848 25.04 6.4 43.6 30 -10.1 13.8
20:10 1019 30.09 848 25.04 6.2 43.2 30 -10.2 13.6
20:15 1019 30.09 848 25.04 6.2 43.1 29 -10.5 13
20:20 1019 30.09 848 25.04 6.3 43.3 29 -10.6 13
20:25 1019 30.09 848 25.04 6.3 43.3 29 -10.5 13.1
20:30 1019 30.09 848 25.04 6.2 43.2 30 -10.3 13.4
20:35 1019 30.09 848 25.04 6.1 42.9 30 -10.3 13.5
20:40 1019 30.09 849 25.07 6 42.7 31 -10.1 13.8
20:45 1019 30.09 849 25.07 5.9 42.7 31 -10 13.9
20:50 1019 30.09 849 25.07 5.6 42.2 32 -10 14.1
20:55 1019 30.09 849 25.07 5.4 41.8 32 -9.8 14.3
21:00 1019 30.09 849 25.07 5.1 41.1 34 -9.6 14.8
21:05 1019 30.09 849 25.07 4.7 40.5 34 -9.8 14.4
21:10 1020 30.12 849 25.07 4.7 40.5 35 -9.5 14.8
21:15 1020 30.12 849 25.07 4.4 39.9 35 -9.6 14.7
21:20 1020 30.12 849 25.07 4.5 40.1 35 -9.7 14.6
21:25 1020 30.12 849 25.07 4.6 40.3 36 -9.2 15.5
21:30 1020 30.12 849 25.07 4.7 40.5 34 -9.8 14.4
21:35 1020 30.12 849 25.07 5.5 41.9 31 -10.3 13.4
21:40 1020 30.12 849 25.07 6.2 43.2 31 -9.7 14.6
21:45 1020 30.12 849 25.07 5.8 42.5 33 -9.3 15.3
21:50 1020 30.12 849 25.07 5.3 41.6 33 -9.5 14.9
21:55 1020 30.12 849 25.07 5.3 41.6 33 -9.7 14.6
22:00 1020 30.12 849 25.07 5.5 42 32 -9.8 14.4
22:05 1020 30.12 849 25.07 5.7 42.3 32 -9.7 14.6
22:10 1020 30.12 849 25.07 5.8 42.4 32 -9.6 14.6
22:15 1020 30.12 849 25.07 5.8 42.4 32 -9.7 14.6
22:20 1020 30.12 850 25.1 5.8 42.5 32 -9.8 14.4
22:25 1020 30.12 850 25.1 5.7 42.3 32 -9.8 14.4
22:30 1020 30.12 850 25.1 5.7 42.2 32 -9.7 14.5
22:35 1020 30.12 850 25.1 5.6 42 32 -9.9 14.2
22:40 1020 30.12 850 25.1 5.5 42 32 -9.9 14.3
22:45 1020 30.12 850 25.1 5.4 41.8 32 -9.8 14.3
22:50 1020 30.12 850 25.1 5.3 41.6 33 -9.9 14.3
22:55 1020 30.12 850 25.1 5.3 41.5 32 -10 14
23:00 1021 30.15 850 25.1 5.4 41.8 32 -9.8 14.3
23:05 1021 30.15 850 25.1 5.5 42 32 -10 14
23:10 1021 30.15 850 25.1 5.7 42.2 31 -10 13.9
23:15 1021 30.15 850 25.1 5.6 42.1 31 -10.2 13.6
23:20 1021 30.15 850 25.1 5.5 42 31 -10.4 13.3
23:25 1021 30.15 850 25.1 5.6 42.1 30 -10.5 13.1
23:30 1021 30.15 850 25.1 5.6 42 31 -10.4 13.2
23:35 1021 30.15 850 25.1 5.7 42.2 30 -10.5 13.1
23:40 1021 30.15 850 25.1 5.7 42.3 30 -10.5 13
23:45 1021 30.15 850 25.1 5.6 42.2 30 -10.6 12.9
23:50 1021 30.15 850 25.1 5.8 42.4 30 -10.5 13.1
23:55 1021 30.15 850 25.1 5.7 42.2 30 -10.6 12.9
24:00 1021 30.15 850 25.1 5.7 42.3 30 -10.7 12.7